M I D A S
Marine Information and Data Acquisition System
Tripno 1686 of the Zeeleeuw from 2009-05-04 08:00:00 to 2009-05-04 17:00:00
Back to CruiseResearch ActivitiesStationsMapUnderway DataData graphs

EquipmentUnitsComment
TimeDGPSUTC
LatitudeDGPSDM.mWGS84
LongitudeDGPSDM.mWGS84
HeadingGyrodeg 
SOGDGPSknotsSpeed over ground
COGDGPSdegCourse over ground
DepthEcho soundermeters200 kHz
Missing or incorrect values are displayed as -999
Navigation data collected by the RV Zeeleeuw from 2009-05-04 08:00:00 to 2009-05-04 17:00:00
Time Latitude Longitude Heading SOG COG Depth
2009-05-04 13:47:13 51°11.829 2°50.585 127.4 -999 -999 7.9
2009-05-04 13:47:13 51°11.829 2°50.585 127.1 -999 -999 7.8
2009-05-04 13:47:13 51°11.829 2°50.585 127.2 -999 -999 7.9
2009-05-04 13:47:13 51°11.829 2°50.585 127.1 -999 -999 7.9
2009-05-04 13:47:13 51°11.829 2°50.585 127.2 -999 -999 7.9
2009-05-04 13:47:13 51°11.829 2°50.585 127.3 -999 -999 7.8
2009-05-04 13:47:13 51°11.829 2°50.585 127.5 -999 -999 7.9
2009-05-04 13:47:13 51°11.829 2°50.585 127.1 -999 -999 7.9
2009-05-04 13:47:13 51°11.829 2°50.585 127.4 -999 -999 7.9
2009-05-04 13:47:14 51°12.384 2°41.022 56.2 11.1 53 8.9
2009-05-04 13:47:19 51°12.393 2°41.041 56.5 11.1 53 9.2
2009-05-04 13:47:24 51°12.403 2°41.061 56.4 11.1 54 9
2009-05-04 13:47:29 51°12.411 2°41.081 57 11.1 55 9.3
2009-05-04 13:47:34 51°12.42 2°41.101 57.1 11 53 9.1
2009-05-04 13:47:38 51°12.428 2°41.117 56.9 11.1 53 9.1
2009-05-04 13:47:44 51°12.439 2°41.14 56.3 11.1 54 9.2
2009-05-04 13:47:49 51°12.448 2°41.16 57 11.1 55 9.2
2009-05-04 13:47:54 51°12.457 2°41.18 57 11.1 53 9.3
2009-05-04 13:47:59 51°12.466 2°41.199 56.4 11.1 53 9.2
2009-05-04 13:48:04 51°12.475 2°41.219 56.2 11.1 52 9.2
2009-05-04 13:48:09 51°12.485 2°41.238 55.5 11.1 53 9.2
2009-05-04 13:48:14 51°12.494 2°41.258 56 11.1 53 9.1
2009-05-04 13:48:19 51°12.504 2°41.277 55.6 11.1 53 9
2009-05-04 13:48:24 51°12.512 2°41.297 56 11.1 53 9.1
2009-05-04 13:48:29 51°12.522 2°41.317 56.2 11.1 53 9.2
2009-05-04 13:48:34 51°12.531 2°41.337 56.2 11.1 54 9.4
2009-05-04 13:48:39 51°12.54 2°41.356 56.1 11.1 52 9.3
2009-05-04 13:48:45 51°12.551 2°41.38 56 11.1 54 9.2
2009-05-04 13:48:49 51°12.559 2°41.395 56.3 11.1 53 9.4
2009-05-04 13:48:54 51°12.568 2°41.415 56.3 11.1 55 9.4
2009-05-04 13:48:59 51°12.577 2°41.435 56.8 11.1 54 9.4
2009-05-04 13:49:04 51°12.585 2°41.456 57.8 11.2 55 9.3
2009-05-04 13:49:09 51°12.595 2°41.475 57.5 11.2 54 9.5
2009-05-04 13:49:14 51°12.603 2°41.496 57.7 11.1 56 9.5
2009-05-04 13:49:19 51°12.612 2°41.516 58 11.2 55 9.5
2009-05-04 13:49:25 51°12.623 2°41.54 58.1 11.2 55 9.4
2009-05-04 13:49:30 51°12.632 2°41.56 58.2 11.2 56 9.4
2009-05-04 13:49:34 51°12.639 2°41.577 58.6 11.2 56 9.5
2009-05-04 13:49:39 51°12.648 2°41.597 58.6 11.1 55 9.5
2009-05-04 13:49:44 51°12.657 2°41.617 57.6 11.1 54 9.4
2009-05-04 13:49:49 51°12.665 2°41.637 57.6 11.1 56 9.6
2009-05-04 13:49:54 51°12.674 2°41.657 57.8 11.1 55 9.5
2009-05-04 13:49:59 51°12.683 2°41.678 58.5 11.1 56 9.7
2009-05-04 13:50:04 51°12.692 2°41.698 58.3 11.1 56 9.6
2009-05-04 13:50:10 51°12.702 2°41.722 58.6 11.1 55 9.5
2009-05-04 13:50:14 51°12.709 2°41.739 58.9 11.1 57 9.6
2009-05-04 13:50:19 51°12.717 2°41.759 59.3 11.1 56 9.5
2009-05-04 13:50:24 51°12.726 2°41.78 59.2 11.2 58 9.5
2009-05-04 13:50:29 51°12.734 2°41.801 59.8 11.2 57 9.5
2009-05-04 13:50:34 51°12.742 2°41.822 60.7 11.1 59 9.3
2009-05-04 13:50:38 51°12.748 2°41.838 61 11.1 57 9.6
2009-05-04 13:50:44 51°12.759 2°41.863 60.3 11.1 58 9.4
2009-05-04 13:50:49 51°12.767 2°41.884 59.9 11.1 57 9.4
2009-05-04 13:50:54 51°12.775 2°41.904 59.6 11.1 56 9.5
2009-05-04 13:51:00 51°12.786 2°41.929 59.2 11.1 57 9.5
2009-05-04 13:51:04 51°12.793 2°41.945 59 11.1 56 9.5
2009-05-04 13:51:09 51°12.801 2°41.966 59.4 11.1 57 9.4
2009-05-04 13:51:14 51°12.809 2°41.986 59.7 11.2 58 9.4
2009-05-04 13:51:19 51°12.817 2°42.007 60.7 11.1 58 9.5
2009-05-04 13:51:24 51°12.825 2°42.028 60.7 11.1 58 9.3
2009-05-04 13:51:29 51°12.833 2°42.05 61.6 11.2 60 9.4
2009-05-04 13:51:34 51°12.842 2°42.07 61.3 11.2 58 9.2
2009-05-04 13:51:38 51°12.847 2°42.087 61.8 11.2 60 9.4
2009-05-04 13:51:45 51°12.859 2°42.117 61.9 11.2 59 9.4
2009-05-04 13:51:49 51°12.865 2°42.134 61.8 11.2 59 9.3
2009-05-04 13:51:54 51°12.873 2°42.155 61.8 11.2 59 9.2
2009-05-04 13:51:59 51°12.881 2°42.176 61.6 11.1 58 9.2
2009-05-04 13:52:04 51°12.889 2°42.197 61.1 11.2 58 9.2
2009-05-04 13:52:09 51°12.897 2°42.218 61 11.2 59 9.3
2009-05-04 13:52:14 51°12.905 2°42.239 61.1 11.2 59 9.3
2009-05-04 13:52:19 51°12.913 2°42.26 61.5 11.1 59 9.4
2009-05-04 13:52:24 51°12.921 2°42.281 61.5 11.1 60 9.1
2009-05-04 13:52:29 51°12.929 2°42.303 62.8 11.1 61 9.1
2009-05-04 13:52:34 51°12.937 2°42.324 62.6 11.1 59 9.3
2009-05-04 13:52:40 51°12.946 2°42.349 62.1 11.1 61 9.2
2009-05-04 13:52:44 51°12.952 2°42.366 62.5 11.1 60 9.1
2009-05-04 13:52:49 51°12.96 2°42.388 62.5 11.1 60 9.1
2009-05-04 13:52:54 51°12.967 2°42.409 63.4 11.1 62 9.1
2009-05-04 13:52:59 51°12.974 2°42.431 64.1 11.1 60 9
2009-05-04 13:53:04 51°12.982 2°42.452 63.2 11.1 61 9.1
2009-05-04 13:53:09 51°12.99 2°42.473 62.9 11.1 60 9
2009-05-04 13:53:14 51°12.998 2°42.494 62.5 11 60 8.9
2009-05-04 13:53:20 51°13.007 2°42.519 62.4 11 60 9
2009-05-04 13:53:24 51°13.013 2°42.536 62.3 11 60 9
2009-05-04 13:53:29 51°13.021 2°42.558 62.2 11 60 9
2009-05-04 13:53:34 51°13.028 2°42.579 63.3 11 61 9
2009-05-04 13:53:39 51°13.035 2°42.6 63.6 11 61 9
2009-05-04 13:53:45 51°13.044 2°42.626 64.2 11 63 9
2009-05-04 13:53:49 51°13.049 2°42.644 64.8 11 62 8.9
2009-05-04 13:53:54 51°13.056 2°42.665 65 11 64 8.9
2009-05-04 13:53:59 51°13.063 2°42.687 65.4 11 62 9
2009-05-04 13:54:04 51°13.07 2°42.709 65.7 11 64 8.9
2009-05-04 13:54:09 51°13.077 2°42.73 65.3 11.1 62 9
2009-05-04 13:54:14 51°13.084 2°42.752 65.8 11.1 65 8.9
2009-05-04 13:54:19 51°13.09 2°42.774 66.6 11.1 65 8.7
2009-05-04 13:54:24 51°13.096 2°42.797 67.4 11 66 8.6
2009-05-04 13:54:29 51°13.103 2°42.819 68.2 11 67 8.7
2009-05-04 13:54:34 51°13.109 2°42.841 68.8 11 67 8.7
2009-05-04 13:54:39 51°13.115 2°42.864 69.6 11 69 8.7
2009-05-04 13:54:44 51°13.12 2°42.887 70.1 11 67 8.6
2009-05-04 13:54:49 51°13.126 2°42.909 70.3 11 69 8.7
2009-05-04 13:54:54 51°13.132 2°42.932 70.3 11.1 67 8.5
2009-05-04 13:55:00 51°13.139 2°42.959 69.9 11 68 8.5
2009-05-04 13:55:04 51°13.143 2°42.977 70.4 11 67 8.5
2009-05-04 13:55:09 51°13.149 2°42.999 69.9 11 70 8.5
2009-05-04 13:55:14 51°13.154 2°43.022 70.9 11 67 8.4
2009-05-04 13:55:19 51°13.16 2°43.044 70.3 11 68 8.5
2009-05-04 13:55:24 51°13.166 2°43.067 70.1 11 66 8.2
2009-05-04 13:55:29 51°13.172 2°43.089 69.8 10.9 68 8.2
2009-05-04 13:55:34 51°13.177 2°43.112 70.5 10.9 69 8.4
2009-05-04 13:55:40 51°13.185 2°43.138 69.9 11 67 8.2
2009-05-04 13:55:45 51°13.19 2°43.161 70.1 10.9 68 8.3
2009-05-04 13:55:49 51°13.195 2°43.178 69.9 11 66 8.4
2009-05-04 13:55:54 51°13.201 2°43.201 69 10.9 67 8.2
2009-05-04 13:55:59 51°13.208 2°43.222 68.5 10.9 65 8
2009-05-04 13:56:05 51°13.214 2°43.249 68.7 10.9 68 8.1
2009-05-04 13:56:09 51°13.22 2°43.267 69 10.9 66 8.1
2009-05-04 13:56:14 51°13.225 2°43.289 69.4 10.8 68 8.1
2009-05-04 13:56:19 51°13.231 2°43.311 69.7 10.9 66 8.1
2009-05-04 13:56:25 51°13.239 2°43.337 68.3 10.9 65 8.1
2009-05-04 13:56:29 51°13.244 2°43.355 68.3 10.9 68 8
2009-05-04 13:56:34 51°13.25 2°43.377 68.8 10.9 65 7.9
2009-05-04 13:56:40 51°13.257 2°43.403 68.3 10.8 68 7.9
2009-05-04 13:56:44 51°13.262 2°43.42 69 10.8 65 8
2009-05-04 13:56:49 51°13.268 2°43.442 69 10.9 67 7.9
2009-05-04 13:56:54 51°13.274 2°43.464 69.3 10.8 66 7.8
2009-05-04 13:56:59 51°13.28 2°43.486 68.5 10.8 65 7.8
2009-05-04 13:57:04 51°13.286 2°43.508 68.3 10.8 67 8
2009-05-04 13:57:09 51°13.293 2°43.529 68 10.8 64 7.9
2009-05-04 13:57:14 51°13.298 2°43.551 67.7 10.7 67 7.7
2009-05-04 13:57:20 51°13.306 2°43.577 68.1 10.7 64 7.7
2009-05-04 13:57:24 51°13.311 2°43.594 67.6 10.7 66 7.8
2009-05-04 13:57:29 51°13.317 2°43.615 67.7 10.7 66 7.9
2009-05-04 13:57:34 51°13.323 2°43.637 68.6 10.7 66 7.9
2009-05-04 13:57:39 51°13.329 2°43.659 68.6 10.7 66 7.7
2009-05-04 13:57:45 51°13.336 2°43.685 68.8 10.7 66 7.8
2009-05-04 13:57:49 51°13.342 2°43.701 68.1 10.7 64 8
2009-05-04 13:57:54 51°13.347 2°43.723 68 10.8 67 8.1
2009-05-04 13:57:59 51°13.354 2°43.744 67.5 10.7 63 8
2009-05-04 13:58:05 51°13.362 2°43.77 67.2 10.7 66 7.9
2009-05-04 13:58:09 51°13.367 2°43.787 67.7 10.8 65 8.1
2009-05-04 13:58:14 51°13.373 2°43.809 67.6 10.8 64 8
2009-05-04 13:58:19 51°13.379 2°43.83 67.6 10.8 65 8.3
2009-05-04 13:58:25 51°13.387 2°43.856 67.2 10.8 65 8.2
2009-05-04 13:58:29 51°13.392 2°43.873 67.6 10.8 64 8.5
2009-05-04 13:58:34 51°13.398 2°43.895 67.6 10.8 66 8.2
2009-05-04 13:58:39 51°13.404 2°43.917 68.2 10.7 65 8.3
2009-05-04 13:58:44 51°13.411 2°43.938 67.5 10.8 65 8.5
2009-05-04 13:58:49 51°13.417 2°43.96 67.5 10.8 64 8.4
2009-05-04 13:58:54 51°13.424 2°43.981 67.2 10.8 64 8.6
2009-05-04 13:59:00 51°13.431 2°44.007 67.2 10.8 65 8.7
2009-05-04 13:59:04 51°13.437 2°44.024 66.9 10.8 64 8.7
2009-05-04 13:59:09 51°13.443 2°44.046 67 10.8 65 8.8
2009-05-04 13:59:14 51°13.449 2°44.067 67.1 10.8 64 8.6
2009-05-04 13:59:19 51°13.455 2°44.089 67.4 10.8 66 8.9
2009-05-04 13:59:24 51°13.461 2°44.111 68.3 10.8 66 8.9
2009-05-04 13:59:29 51°13.467 2°44.133 69 10.8 67 8.9
2009-05-04 13:59:34 51°13.473 2°44.155 69.5 10.8 68 9
2009-05-04 13:59:40 51°13.479 2°44.182 69.8 10.8 67 9.1
2009-05-04 13:59:45 51°13.485 2°44.204 69.8 10.9 69 9.2
2009-05-04 13:59:49 51°13.49 2°44.222 70.1 10.9 67 9.3
2009-05-04 13:59:54 51°13.495 2°44.244 69.8 10.8 68 8.9
2009-05-04 13:59:59 51°13.501 2°44.266 69.9 10.9 67 9.3
2009-05-04 14:00:05 51°13.508 2°44.292 69.6 10.8 67 9.2
2009-05-04 14:00:09 51°13.513 2°44.31 69.3 10.8 66 9.2
2009-05-04 14:00:14 51°13.519 2°44.332 69.1 10.9 67 9.2
2009-05-04 14:00:19 51°13.524 2°44.354 69.1 10.9 66 9.2
2009-05-04 14:00:25 51°13.531 2°44.381 69.2 10.9 67 9.3
2009-05-04 14:00:29 51°13.536 2°44.399 69.2 10.9 67 9.4
2009-05-04 14:00:34 51°13.542 2°44.421 69 10.9 68 9.3
2009-05-04 14:00:39 51°13.548 2°44.443 69.4 10.9 67 9.5
2009-05-04 14:00:45 51°13.555 2°44.47 69.2 10.9 67 9.2
2009-05-04 14:00:49 51°13.56 2°44.487 69.4 10.9 67 9.2
2009-05-04 14:00:54 51°13.565 2°44.51 69.8 10.9 68 9.3
2009-05-04 14:00:59 51°13.571 2°44.532 69.2 10.9 65 9.5
2009-05-04 14:01:05 51°13.579 2°44.558 67.7 10.9 66 9.5
2009-05-04 14:01:09 51°13.584 2°44.575 68 10.9 65 9.6
2009-05-04 14:01:14 51°13.59 2°44.597 67.3 10.9 65 9.4
2009-05-04 14:01:20 51°13.598 2°44.623 67 10.8 65 9.6
2009-05-04 14:01:24 51°13.603 2°44.64 67.2 10.9 65 9.4
2009-05-04 14:01:29 51°13.609 2°44.662 66.9 10.8 65 9.5
2009-05-04 14:01:34 51°13.616 2°44.684 66.7 10.8 65 9.5
2009-05-04 14:01:39 51°13.623 2°44.705 66.4 10.8 63 9.5
2009-05-04 14:01:45 51°13.63 2°44.731 66.4 10.9 66 9.3
2009-05-04 14:01:49 51°13.635 2°44.748 66.7 10.9 62 9.4
2009-05-04 14:01:54 51°13.642 2°44.77 66.8 10.8 67 9.4
2009-05-04 14:01:59 51°13.647 2°44.792 67.8 10.9 66 9.5
2009-05-04 14:02:05 51°13.655 2°44.818 67.8 10.9 65 9.4
2009-05-04 14:02:09 51°13.659 2°44.836 68.7 10.9 68 9.5
2009-05-04 14:02:14 51°13.666 2°44.858 68.8 10.8 66 9.3
2009-05-04 14:02:19 51°13.671 2°44.881 69.2 10.9 68 9.4
2009-05-04 14:02:25 51°13.678 2°44.907 69.3 10.9 66 9.4
2009-05-04 14:02:29 51°13.683 2°44.925 69.2 10.9 68 9.4
2009-05-04 14:02:34 51°13.689 2°44.947 69.5 10.8 68 9.2
2009-05-04 14:02:39 51°13.694 2°44.97 69.8 10.9 68 9.4
2009-05-04 14:02:45 51°13.701 2°44.996 69.4 10.9 66 9.3
2009-05-04 14:02:49 51°13.706 2°45.014 69.1 10.9 66 9.2
2009-05-04 14:02:54 51°13.712 2°45.036 69 10.9 69 9.3
2009-05-04 14:02:59 51°13.718 2°45.059 69.3 10.9 66 9.2
2009-05-04 14:03:05 51°13.724 2°45.085 69.4 10.9 69 9.5
2009-05-04 14:03:09 51°13.729 2°45.103 69.3 10.9 67 9.5
2009-05-04 14:03:14 51°13.735 2°45.125 69.2 10.9 68 9.3
2009-05-04 14:03:19 51°13.741 2°45.147 69.1 10.9 66 9.2
2009-05-04 14:03:25 51°13.748 2°45.174 69.1 10.9 68 9.4
2009-05-04 14:03:29 51°13.753 2°45.192 69.3 10.9 66 9.1
2009-05-04 14:03:34 51°13.759 2°45.213 68.7 10.9 66 9.3
2009-05-04 14:03:39 51°13.764 2°45.236 69 10.9 68 9.3
2009-05-04 14:03:44 51°13.77 2°45.258 69.2 10.9 66 9.3
2009-05-04 14:03:50 51°13.777 2°45.284 68.9 10.9 67 9.2
2009-05-04 14:03:54 51°13.782 2°45.302 68.6 10.8 67 9.2
2009-05-04 14:04:00 51°13.789 2°45.328 68.5 10.8 66 9.3
2009-05-04 14:04:04 51°13.795 2°45.345 67.3 10.8 65 9.3
2009-05-04 14:04:09 51°13.801 2°45.367 67.5 10.8 65 9.1
2009-05-04 14:04:14 51°13.808 2°45.388 66.9 10.8 65 9.3
2009-05-04 14:04:20 51°13.815 2°45.414 66.7 10.7 63 8.9
2009-05-04 14:04:24 51°13.82 2°45.431 66.8 10.7 66 9.1
2009-05-04 14:04:29 51°13.826 2°45.453 67.2 10.8 65 9.2
2009-05-04 14:04:34 51°13.833 2°45.475 67.3 10.8 65 9.1
2009-05-04 14:04:39 51°13.839 2°45.496 66.9 10.7 64 9
2009-05-04 14:04:45 51°13.847 2°45.522 66.9 10.7 65 9.1
2009-05-04 14:04:49 51°13.852 2°45.539 67.6 10.8 66 9.2
2009-05-04 14:04:54 51°13.857 2°45.561 68.3 10.8 68 9
2009-05-04 14:04:59 51°13.864 2°45.583 68.5 10.8 65 9.1
2009-05-04 14:05:05 51°13.871 2°45.61 68.3 10.8 68 9.1
2009-05-04 14:05:09 51°13.875 2°45.627 68.9 10.9 66 9
2009-05-04 14:05:14 51°13.881 2°45.649 68.9 10.9 68 9.1
2009-05-04 14:05:19 51°13.887 2°45.672 69.1 10.9 66 8.9
2009-05-04 14:05:25 51°13.894 2°45.698 68.9 10.9 68 8.9
2009-05-04 14:05:30 51°13.9 2°45.72 69 10.8 65 9
2009-05-04 14:05:34 51°13.905 2°45.738 68.6 10.9 70 9
2009-05-04 14:05:38 51°13.909 2°45.756 69.4 10.9 65 8.8
2009-05-04 14:05:45 51°13.917 2°45.786 69 10.9 68 8.9
2009-05-04 14:05:49 51°13.922 2°45.804 69.3 10.9 68 9
2009-05-04 14:05:54 51°13.928 2°45.826 69.6 10.8 68 8.8
2009-05-04 14:06:00 51°13.935 2°45.853 69.8 10.9 67 9
2009-05-04 14:06:04 51°13.939 2°45.871 69 10.9 69 9.1
2009-05-04 14:06:09 51°13.945 2°45.893 69 10.8 65 8.7
2009-05-04 14:06:14 51°13.951 2°45.915 68.9 10.8 69 9
2009-05-04 14:06:19 51°13.956 2°45.937 69.7 10.9 67 9
2009-05-04 14:06:24 51°13.963 2°45.959 69 10.8 66 8.8
2009-05-04 14:06:29 51°13.968 2°45.981 68.9 10.9 69 9
2009-05-04 14:06:34 51°13.975 2°46.003 69 10.8 65 8.8
2009-05-04 14:06:39 51°13.98 2°46.025 68.8 10.8 68 9
2009-05-04 14:06:45 51°13.988 2°46.051 68.6 10.9 65 8.8
2009-05-04 14:06:49 51°13.993 2°46.069 67.8 10.8 66 8.7
2009-05-04 14:06:54 51°13.999 2°46.09 67.6 10.8 65 8.8
2009-05-04 14:06:59 51°14.006 2°46.112 66.9 10.8 66 8.8
2009-05-04 14:07:05 51°14.014 2°46.138 67.4 10.8 65 8.6
2009-05-04 14:07:09 51°14.018 2°46.155 67.5 10.8 66 8.6
2009-05-04 14:07:14 51°14.024 2°46.177 68.2 10.8 65 8.8
2009-05-04 14:07:19 51°14.03 2°46.199 68.5 10.8 67 8.5
2009-05-04 14:07:25 51°14.038 2°46.225 68.2 10.8 64 8.5
2009-05-04 14:07:29 51°14.042 2°46.243 68.1 10.8 67 8.5
2009-05-04 14:07:34 51°14.049 2°46.264 67.5 10.7 64 8.7
2009-05-04 14:07:38 51°14.053 2°46.282 68.3 10.7 69 8.6
2009-05-04 14:07:44 51°14.061 2°46.307 68.3 10.8 63 8.4
2009-05-04 14:07:49 51°14.067 2°46.329 67.8 10.7 68 8.5
2009-05-04 14:07:54 51°14.073 2°46.351 67.7 10.7 64 8.6
2009-05-04 14:07:59 51°14.08 2°46.372 67.2 10.7 66 8.4
2009-05-04 14:08:04 51°14.086 2°46.394 66.8 10.7 65 8.4
2009-05-04 14:08:10 51°14.092 2°46.42 67.7 10.7 69 8.5
2009-05-04 14:08:14 51°14.095 2°46.438 72.1 10.6 76 8.4
2009-05-04 14:08:19 51°14.099 2°46.461 75.3 10.6 74 8.7
2009-05-04 14:08:24 51°14.102 2°46.484 77.1 10.6 80 8.4
2009-05-04 14:08:30 51°14.105 2°46.511 79 10.6 78 8.3
2009-05-04 14:08:34 51°14.107 2°46.53 80.1 10.7 80 8.2
2009-05-04 14:08:39 51°14.109 2°46.554 82 10.7 83 8.3
2009-05-04 14:08:45 51°14.112 2°46.581 82.5 10.6 81 7.9
2009-05-04 14:08:49 51°14.112 2°46.6 83.9 10.6 86 8.2
2009-05-04 14:08:54 51°14.114 2°46.623 84.5 10.6 81 7.9
2009-05-04 14:09:00 51°14.115 2°46.651 85.3 10.6 89 8.1
2009-05-04 14:09:04 51°14.118 2°46.67 85.1 10.6 81 7.9
2009-05-04 14:09:09 51°14.117 2°46.693 86.2 10.7 90 8.1
2009-05-04 14:09:14 51°14.12 2°46.716 85.3 10.6 82 8.3
2009-05-04 14:09:19 51°14.12 2°46.74 86.3 10.6 90 8
2009-05-04 14:09:24 51°14.121 2°46.763 86.7 10.7 84 8
2009-05-04 14:09:30 51°14.122 2°46.792 86.2 10.7 88 8.2
2009-05-04 14:09:34 51°14.122 2°46.81 86.8 10.6 87 8.2
2009-05-04 14:09:40 51°14.123 2°46.838 87.3 10.6 87 8.1
2009-05-04 14:09:45 51°14.124 2°46.862 87.1 10.6 87 7.9
2009-05-04 14:09:49 51°14.125 2°46.881 87.2 10.6 89 8
2009-05-04 14:09:54 51°14.125 2°46.904 88.2 10.6 88 8
2009-05-04 14:09:59 51°14.126 2°46.927 87.3 10.6 87 8.2
2009-05-04 14:10:04 51°14.125 2°46.951 88.2 10.7 90 8.4
2009-05-04 14:10:10 51°14.127 2°46.979 87.6 10.7 87 8.4
2009-05-04 14:10:14 51°14.126 2°46.998 88.1 10.8 90 8.5
2009-05-04 14:10:18 51°14.127 2°47.017 88.6 10.7 87 8.5
2009-05-04 14:10:24 51°14.127 2°47.046 88.2 10.7 90 8.7
2009-05-04 14:10:29 51°14.128 2°47.069 88.6 10.8 87 8.4
2009-05-04 14:10:34 51°14.129 2°47.093 87.8 10.7 87 8.7
2009-05-04 14:10:39 51°14.129 2°47.117 87.6 10.8 89 8.9
2009-05-04 14:10:44 51°14.13 2°47.141 87.5 10.8 87 9.1
2009-05-04 14:10:49 51°14.13 2°47.164 87.5 10.8 90 9.2
2009-05-04 14:10:54 51°14.13 2°47.188 88.7 10.8 89 9.2
2009-05-04 14:11:00 51°14.13 2°47.217 88.8 10.8 90 9.6
2009-05-04 14:11:04 51°14.13 2°47.236 89.4 10.8 90 9.5
2009-05-04 14:11:10 51°14.13 2°47.265 89.8 10.9 91 9.6
2009-05-04 14:11:14 51°14.129 2°47.284 89.8 10.9 91 9.4
2009-05-04 14:11:20 51°14.129 2°47.313 90.5 10.9 91 9.4
2009-05-04 14:11:24 51°14.128 2°47.332 90.3 10.9 91 9.7
2009-05-04 14:11:29 51°14.128 2°47.356 90.4 10.9 92 9.9
2009-05-04 14:11:34 51°14.128 2°47.38 90.4 10.9 91 9.7
2009-05-04 14:11:40 51°14.128 2°47.409 90.3 10.9 90 9.8
2009-05-04 14:11:45 51°14.128 2°47.433 89.9 10.9 92 9.7
2009-05-04 14:11:49 51°14.127 2°47.453 90.3 10.9 91 9.9
2009-05-04 14:11:54 51°14.127 2°47.477 90.4 10.9 91 10.1
2009-05-04 14:11:59 51°14.127 2°47.501 90.5 10.8 92 10
2009-05-04 14:12:05 51°14.126 2°47.529 90.7 10.9 92 10.2
2009-05-04 14:12:09 51°14.126 2°47.549 89.9 10.9 89 10.3
2009-05-04 14:12:14 51°14.126 2°47.573 89.4 10.9 91 10.4
2009-05-04 14:12:18 51°14.126 2°47.592 89.9 10.9 90 10.3
2009-05-04 14:12:25 51°14.125 2°47.626 89.4 11 90 10.4
2009-05-04 14:12:29 51°14.126 2°47.645 88.6 10.9 89 10.6
2009-05-04 14:12:34 51°14.126 2°47.669 88.9 10.9 91 10.3
2009-05-04 14:12:39 51°14.126 2°47.693 89.1 10.9 89 10.4
2009-05-04 14:12:44 51°14.126 2°47.717 89.3 10.9 91 10.4
2009-05-04 14:12:50 51°14.125 2°47.746 89.2 10.9 90 10.6
2009-05-04 14:12:54 51°14.126 2°47.765 89.3 10.8 90 10.4
2009-05-04 14:13:00 51°14.125 2°47.794 89.6 10.8 91 10.4
2009-05-04 14:13:04 51°14.125 2°47.813 89.7 10.8 90 10.5
2009-05-04 14:13:09 51°14.125 2°47.837 89.7 10.9 92 10.6
2009-05-04 14:13:14 51°14.125 2°47.861 90 10.9 90 10.5
2009-05-04 14:13:19 51°14.124 2°47.885 89.8 10.9 92 10.7
2009-05-04 14:13:24 51°14.124 2°47.909 90 10.9 90 10.6
2009-05-04 14:13:30 51°14.123 2°47.938 90.1 10.8 92 10.5
2009-05-04 14:13:34 51°14.123 2°47.957 90.1 10.8 91 10.5
2009-05-04 14:13:40 51°14.123 2°47.985 89.9 10.8 92 10.6
2009-05-04 14:13:45 51°14.123 2°48.009 89.4 10.8 90 10.6
2009-05-04 14:13:49 51°14.122 2°48.028 90 10.8 92 10.4
2009-05-04 14:13:54 51°14.122 2°48.052 89.8 10.8 90 10.4
2009-05-04 14:13:59 51°14.122 2°48.076 89.1 10.8 91 10.5
2009-05-04 14:14:04 51°14.122 2°48.1 89.6 10.8 90 10.5
2009-05-04 14:14:10 51°14.122 2°48.129 89.4 10.8 91 10.5
2009-05-04 14:14:14 51°14.121 2°48.148 89.7 10.7 90 10.7
2009-05-04 14:14:18 51°14.122 2°48.167 88.8 10.8 90 10.6
2009-05-04 14:14:25 51°14.122 2°48.2 88.6 10.8 89 10.5
2009-05-04 14:14:29 51°14.122 2°48.219 88 10.8 89 10.5
2009-05-04 14:14:34 51°14.122 2°48.243 87.3 10.7 85 10.6
2009-05-04 14:14:39 51°14.125 2°48.266 85 10.7 86 10.6
2009-05-04 14:14:44 51°14.125 2°48.29 84.2 10.6 82 10.4
2009-05-04 14:14:50 51°14.129 2°48.318 82.1 10.7 82 10.5
2009-05-04 14:14:54 51°14.13 2°48.336 81.4 10.6 80 10.5
2009-05-04 14:14:58 51°14.133 2°48.355 80.2 10.7 81 10.5
2009-05-04 14:15:04 51°14.135 2°48.383 79.9 10.7 78 10.3
2009-05-04 14:15:09 51°14.138 2°48.406 79.2 10.7 81 10.5
2009-05-04 14:15:14 51°14.141 2°48.429 79.6 10.7 79 10.6
2009-05-04 14:15:19 51°14.144 2°48.452 79.1 10.6 79 10.3
2009-05-04 14:15:24 51°14.146 2°48.476 79.1 10.7 80 10.5
2009-05-04 14:15:30 51°14.149 2°48.503 79.3 10.7 80 10.7
2009-05-04 14:15:34 51°14.152 2°48.522 79 10.6 78 10.5
2009-05-04 14:15:39 51°14.155 2°48.545 78.4 10.7 80 10.7
2009-05-04 14:15:44 51°14.158 2°48.568 78.5 10.6 78 10.6
2009-05-04 14:15:49 51°14.161 2°48.591 78.3 10.7 80 10.7
2009-05-04 14:15:54 51°14.163 2°48.614 78.6 10.7 79 10.7
2009-05-04 14:16:00 51°14.167 2°48.642 77.7 10.7 78 10.7
2009-05-04 14:16:04 51°14.169 2°48.66 77.7 10.6 78 10.5
2009-05-04 14:16:09 51°14.173 2°48.683 77.9 10.6 79 10.5
2009-05-04 14:16:14 51°14.175 2°48.706 78.4 10.6 79 10.4
2009-05-04 14:16:19 51°14.178 2°48.729 79.2 10.6 79 10.5
2009-05-04 14:16:25 51°14.181 2°48.757 78.8 10.7 79 10.5
2009-05-04 14:16:29 51°14.184 2°48.776 78.5 10.6 79 10.4
2009-05-04 14:16:34 51°14.187 2°48.799 78.9 10.7 79 10.5
2009-05-04 14:16:39 51°14.189 2°48.822 78.9 10.8 79 10.6
2009-05-04 14:16:45 51°14.193 2°48.85 78.7 10.7 79 10.6
2009-05-04 14:16:49 51°14.195 2°48.868 78.8 10.7 80 10.5
2009-05-04 14:16:54 51°14.197 2°48.892 78.6 10.7 78 10.6
2009-05-04 14:16:59 51°14.201 2°48.915 77.1 10.7 77 10.5
2009-05-04 14:17:05 51°14.204 2°48.943 78.2 10.7 80 10.5
2009-05-04 14:17:10 51°14.208 2°48.966 78 10.7 77 10.5
2009-05-04 14:17:14 51°14.209 2°48.984 78.8 10.7 80 10.3
2009-05-04 14:17:18 51°14.212 2°49.003 78.2 10.7 77 10.6
2009-05-04 14:17:24 51°14.215 2°49.031 78.5 10.7 81 10.5
2009-05-04 14:17:30 51°14.219 2°49.059 79.2 10.7 78 10.6
2009-05-04 14:17:34 51°14.221 2°49.077 78.6 10.8 80 10.6
2009-05-04 14:17:40 51°14.224 2°49.105 79 10.7 78 10.4
2009-05-04 14:17:44 51°14.227 2°49.124 78.8 10.7 80 10.4
2009-05-04 14:17:49 51°14.229 2°49.147 79.3 10.7 79 10.4
2009-05-04 14:17:54 51°14.232 2°49.17 79.1 10.7 80 10.5
2009-05-04 14:17:59 51°14.234 2°49.194 79.9 10.6 81 10.5
2009-05-04 14:18:04 51°14.236 2°49.217 79.9 10.6 81 10.4
2009-05-04 14:18:09 51°14.239 2°49.24 79.9 10.7 78 10.3
2009-05-04 14:18:14 51°14.242 2°49.263 78.8 10.6 79 10.4
2009-05-04 14:18:20 51°14.245 2°49.29 78.8 10.6 79 10.5
2009-05-04 14:18:24 51°14.247 2°49.309 78.8 10.7 80 10.5
2009-05-04 14:18:29 51°14.25 2°49.332 78.9 10.6 77 10.2
2009-05-04 14:18:34 51°14.253 2°49.355 78 10.7 79 10.3
2009-05-04 14:18:39 51°14.256 2°49.378 78.2 10.6 78 10.4
2009-05-04 14:18:45 51°14.259 2°49.406 77.7 10.7 79 10.5
2009-05-04 14:18:49 51°14.262 2°49.424 77.4 10.6 78 10.3
2009-05-04 14:18:54 51°14.265 2°49.447 77.9 10.6 80 10.4
2009-05-04 14:18:59 51°14.267 2°49.47 79 10.6 79 10.3
2009-05-04 14:19:05 51°14.271 2°49.498 78.8 10.6 79 10.3
2009-05-04 14:19:10 51°14.273 2°49.521 79.1 10.6 82 10.2
2009-05-04 14:19:14 51°14.275 2°49.539 79.9 10.6 79 10.2
2009-05-04 14:19:18 51°14.277 2°49.558 78.7 10.6 81 10.3
2009-05-04 14:19:25 51°14.28 2°49.59 79.9 10.6 81 10.2
2009-05-04 14:19:29 51°14.283 2°49.608 79.2 10.6 78 10.1
2009-05-04 14:19:34 51°14.285 2°49.632 79.6 10.7 82 10.2
2009-05-04 14:19:39 51°14.287 2°49.655 79.2 10.6 78 10.2
2009-05-04 14:19:44 51°14.29 2°49.678 78.8 10.6 80 10.2
2009-05-04 14:19:50 51°14.294 2°49.705 78.5 10.6 77 10
2009-05-04 14:19:54 51°14.296 2°49.724 77.8 10.6 80 10.1
2009-05-04 14:20:00 51°14.299 2°49.751 78.1 10.6 77 9.9
2009-05-04 14:20:04 51°14.301 2°49.77 78 10.7 79 9.9
2009-05-04 14:20:10 51°14.304 2°49.798 78.7 10.6 80 9.9
2009-05-04 14:20:14 51°14.306 2°49.816 78.9 10.6 79 9.9
2009-05-04 14:20:20 51°14.309 2°49.844 79.2 10.7 81 9.8
2009-05-04 14:20:24 51°14.312 2°49.862 79.7 10.7 79 9.8
2009-05-04 14:20:29 51°14.314 2°49.886 79.4 10.7 83 9.8
2009-05-04 14:20:34 51°14.316 2°49.909 80.1 10.7 79 9.7
2009-05-04 14:20:39 51°14.319 2°49.932 79.4 10.7 81 9.7
2009-05-04 14:20:45 51°14.322 2°49.96 79.9 10.7 81 9.6
2009-05-04 14:20:50 51°14.325 2°49.983 79.9 10.7 79 9.6
2009-05-04 14:20:54 51°14.326 2°50.002 80 10.7 81 9.6
2009-05-04 14:21:00 51°14.33 2°50.029 79.6 10.6 80 9.5
2009-05-04 14:21:05 51°14.332 2°50.053 80.2 10.7 80 9.4
2009-05-04 14:21:09 51°14.334 2°50.071 79.5 10.7 79 9.5
2009-05-04 14:21:14 51°14.337 2°50.094 78.5 10.6 78 9.4
2009-05-04 14:21:18 51°14.34 2°50.113 78.5 10.6 80 9.5
2009-05-04 14:21:25 51°14.344 2°50.145 78.4 10.6 77 9.6
2009-05-04 14:21:29 51°14.346 2°50.163 77.5 10.6 80 9.4
2009-05-04 14:21:34 51°14.349 2°50.186 77.9 10.6 78 9.4
2009-05-04 14:21:39 51°14.352 2°50.21 78.2 10.7 81 9.4
2009-05-04 14:21:45 51°14.355 2°50.237 79.3 10.6 79 9.5
2009-05-04 14:21:50 51°14.358 2°50.26 79.2 10.6 81 9.3
2009-05-04 14:21:54 51°14.36 2°50.279 80.1 10.6 81 9.3
2009-05-04 14:22:00 51°14.363 2°50.307 80.3 10.7 81 9.2
2009-05-04 14:22:04 51°14.364 2°50.325 80.3 10.6 80 9.3
2009-05-04 14:22:09 51°14.367 2°50.349 79.9 10.6 82 9.2
2009-05-04 14:22:14 51°14.368 2°50.372 80.5 10.6 81 9.3
2009-05-04 14:22:19 51°14.371 2°50.395 80 10.6 80 9.1
2009-05-04 14:22:24 51°14.373 2°50.419 80.3 10.7 82 9.2
2009-05-04 14:22:29 51°14.376 2°50.442 80.3 10.7 81 9.1
2009-05-04 14:22:34 51°14.378 2°50.465 80.2 10.7 81 9.1
2009-05-04 14:22:39 51°14.381 2°50.488 79.9 10.7 80 9
2009-05-04 14:22:45 51°14.383 2°50.516 80 10.7 82 9.2
2009-05-04 14:22:49 51°14.385 2°50.535 80.3 10.7 79 9.1
2009-05-04 14:22:54 51°14.388 2°50.558 79.9 10.7 81 9
2009-05-04 14:22:59 51°14.391 2°50.581 79.9 10.6 80 9
2009-05-04 14:23:04 51°14.393 2°50.604 79.5 10.7 81 8.9
2009-05-04 14:23:10 51°14.396 2°50.632 79.4 10.6 79 8.9
2009-05-04 14:23:14 51°14.398 2°50.651 79.9 10.6 81 9.1
2009-05-04 14:23:20 51°14.401 2°50.678 79.2 10.6 79 8.8
2009-05-04 14:23:25 51°14.404 2°50.702 79.2 10.6 79 8.9
2009-05-04 14:23:29 51°14.407 2°50.72 77.9 10.6 78 8.9
2009-05-04 14:23:34 51°14.41 2°50.742 78.3 10.5 80 8.9
2009-05-04 14:23:40 51°14.413 2°50.77 79.2 10.6 79 8.7
2009-05-04 14:23:45 51°14.415 2°50.793 79.1 10.6 78 8.7
2009-05-04 14:23:49 51°14.417 2°50.812 78.8 10.5 80 8.8
2009-05-04 14:23:54 51°14.42 2°50.835 79.4 10.6 81 8.9
2009-05-04 14:23:59 51°14.422 2°50.858 80.1 10.6 79 8.9
2009-05-04 14:24:05 51°14.426 2°50.885 79.2 10.6 80 8.9
2009-05-04 14:24:10 51°14.428 2°50.909 79.7 10.6 80 8.8
2009-05-04 14:24:14 51°14.43 2°50.927 79.7 10.6 80 8.8
2009-05-04 14:24:19 51°14.432 2°50.95 79.7 10.6 82 8.9
2009-05-04 14:24:24 51°14.435 2°50.973 80 10.6 78 8.7
2009-05-04 14:24:29 51°14.437 2°50.997 79.6 10.7 82 8.8
2009-05-04 14:24:34 51°14.44 2°51.02 79.4 10.6 78 8.7
2009-05-04 14:24:39 51°14.443 2°51.043 79.2 10.6 80 8.7
2009-05-04 14:24:44 51°14.446 2°51.066 78.9 10.7 78 8.7
2009-05-04 14:24:50 51°14.449 2°51.093 78.7 10.6 80 8.8
2009-05-04 14:24:54 51°14.451 2°51.112 79.2 10.6 80 8.9
2009-05-04 14:25:00 51°14.454 2°51.14 79.3 10.6 80 8.7
2009-05-04 14:25:04 51°14.456 2°51.158 79.5 10.6 81 8.6
2009-05-04 14:25:09 51°14.459 2°51.181 80.1 10.6 80 8.7
2009-05-04 14:25:14 51°14.462 2°51.204 79.4 10.6 80 8.5
2009-05-04 14:25:20 51°14.464 2°51.232 80.1 10.6 81 8.5
2009-05-04 14:25:25 51°14.467 2°51.255 79.4 10.7 79 8.6
2009-05-04 14:25:29 51°14.469 2°51.274 79.2 10.6 82 8.6
2009-05-04 14:25:34 51°14.471 2°51.297 80.1 10.6 79 8.5
2009-05-04 14:25:39 51°14.474 2°51.32 79.2 10.6 80 8.6
2009-05-04 14:25:45 51°14.476 2°51.348 80 10.6 82 8.6
2009-05-04 14:25:49 51°14.479 2°51.367 80.1 10.6 79 8.7
2009-05-04 14:25:54 51°14.481 2°51.39 79.9 10.6 81 8.6
2009-05-04 14:26:00 51°14.484 2°51.417 79.7 10.7 80 8.8
2009-05-04 14:26:05 51°14.487 2°51.441 79.5 10.6 80 8.6
2009-05-04 14:26:09 51°14.489 2°51.459 79.4 10.6 79 8.5
2009-05-04 14:26:14 51°14.491 2°51.482 79.5 10.7 80 8.5
2009-05-04 14:26:19 51°14.494 2°51.506 79.6 10.7 80 8.7
2009-05-04 14:26:24 51°14.497 2°51.529 79.5 10.7 79 8.6
2009-05-04 14:26:30 51°14.5 2°51.557 79.1 10.7 80 8.5
2009-05-04 14:26:34 51°14.503 2°51.575 79.2 10.7 79 8.5
2009-05-04 14:26:40 51°14.506 2°51.603 79.2 10.6 77 8.4
2009-05-04 14:26:45 51°14.509 2°51.626 78.3 10.6 79 8.5
2009-05-04 14:26:49 51°14.512 2°51.644 77.9 10.6 77 8.6
2009-05-04 14:26:54 51°14.516 2°51.667 77.1 10.7 76 8.4
2009-05-04 14:26:59 51°14.518 2°51.69 76.6 10.7 77 8.6
2009-05-04 14:27:04 51°14.522 2°51.713 76.4 10.6 76 8.4
2009-05-04 14:27:10 51°14.526 2°51.741 76.8 10.6 77 8.5
2009-05-04 14:27:14 51°14.529 2°51.759 77 10.7 76 8.5
2009-05-04 14:27:20 51°14.533 2°51.787 76.6 10.7 77 8.6
2009-05-04 14:27:25 51°14.536 2°51.81 77.1 10.7 78 8.6
2009-05-04 14:27:29 51°14.539 2°51.828 77.5 10.7 75 8.5
2009-05-04 14:27:34 51°14.542 2°51.851 77 10.7 81 8.5
2009-05-04 14:27:40 51°14.546 2°51.879 77.7 10.7 76 8.6
2009-05-04 14:27:45 51°14.547 2°51.902 79 10.7 85 8.5
2009-05-04 14:27:49 51°14.549 2°51.921 80.9 10.6 78 8.4
2009-05-04 14:27:54 51°14.551 2°51.944 80.8 10.7 85 8.5
2009-05-04 14:27:59 51°14.552 2°51.968 82.6 10.6 83 8.6
2009-05-04 14:28:05 51°14.554 2°51.996 83.4 10.6 86 8.5
2009-05-04 14:28:09 51°14.555 2°52.014 84.5 10.6 86 8.5
2009-05-04 14:28:14 51°14.556 2°52.038 84.7 10.7 85 8.5
2009-05-04 14:28:19 51°14.556 2°52.062 85.5 10.7 88 8.5
2009-05-04 14:28:25 51°14.557 2°52.089 86.3 10.7 88 8.5
2009-05-04 14:28:30 51°14.556 2°52.113 88 10.7 90 8.3
2009-05-04 14:28:34 51°14.557 2°52.132 88.2 10.8 89 8.4
2009-05-04 14:28:39 51°14.556 2°52.156 89.6 10.8 93 8.5
2009-05-04 14:28:45 51°14.556 2°52.185 90.1 10.8 90 8.4
2009-05-04 14:28:50 51°14.555 2°52.209 90.8 10.8 94 8.4
2009-05-04 14:28:54 51°14.555 2°52.228 91.5 10.8 92 8.4
2009-05-04 14:28:59 51°14.554 2°52.251 91.5 10.8 94 8.2
2009-05-04 14:29:05 51°14.553 2°52.28 92.3 10.8 93 8.4
2009-05-04 14:29:10 51°14.552 2°52.304 91.8 10.8 94 8.5
2009-05-04 14:29:14 51°14.551 2°52.323 92.5 10.8 93 8.2
2009-05-04 14:29:19 51°14.55 2°52.347 93 10.9 95 8.1
2009-05-04 14:29:24 51°14.548 2°52.371 92.7 10.9 93 8.4
2009-05-04 14:29:30 51°14.547 2°52.4 92.4 10.8 96 8.2
2009-05-04 14:29:34 51°14.546 2°52.419 93.7 10.8 94 8.4
2009-05-04 14:29:40 51°14.545 2°52.448 92.4 10.8 96 8.2
2009-05-04 14:29:45 51°14.544 2°52.472 93.6 10.9 93 8.3
2009-05-04 14:29:49 51°14.543 2°52.491 92.1 10.9 95 8.4
2009-05-04 14:29:54 51°14.541 2°52.515 93.1 10.8 96 8.2
2009-05-04 14:30:00 51°14.539 2°52.543 93.9 10.9 95 8.2
2009-05-04 14:30:05 51°14.538 2°52.567 93.6 10.9 96 8.2
2009-05-04 14:30:09 51°14.537 2°52.587 94.2 11 96 8.2
2009-05-04 14:30:14 51°14.535 2°52.611 94.1 10.9 95 8
2009-05-04 14:30:19 51°14.533 2°52.635 94.5 11 98 8
2009-05-04 14:30:25 51°14.532 2°52.664 94.3 11 93 8
2009-05-04 14:30:29 51°14.53 2°52.683 94 11.1 100 8.1
2009-05-04 14:30:34 51°14.529 2°52.708 94.3 10.9 91 8
2009-05-04 14:30:39 51°14.527 2°52.732 93.2 10.9 100 8.1
2009-05-04 14:30:45 51°14.526 2°52.761 94.4 10.9 94 7.9
2009-05-04 14:30:50 51°14.524 2°52.785 93.9 11 97 7.9
2009-05-04 14:30:54 51°14.523 2°52.804 93 10.9 93 7.8
2009-05-04 14:30:59 51°14.521 2°52.828 93.4 11 96 7.8
2009-05-04 14:31:04 51°14.521 2°52.852 92.1 11.1 92 7.8
2009-05-04 14:31:10 51°14.52 2°52.881 91.3 10.9 94 7.7
2009-05-04 14:31:14 51°14.518 2°52.901 92 11 96 7.7
2009-05-04 14:31:19 51°14.518 2°52.925 91.2 11 89 7.6
2009-05-04 14:31:24 51°14.517 2°52.949 90.8 11.1 97 7.7
2009-05-04 14:31:30 51°14.517 2°52.978 91 10.9 88 7.5
2009-05-04 14:31:34 51°14.516 2°52.998 90.4 10.9 95 7.6
2009-05-04 14:31:40 51°14.516 2°53.026 90.5 10.9 91 7.5
2009-05-04 14:31:45 51°14.515 2°53.051 90.3 11 93 5.5
2009-05-04 14:31:49 51°14.514 2°53.07 90.5 10.9 90 -999
2009-05-04 14:31:54 51°14.515 2°53.094 88.7 10.9 91 7.3
2009-05-04 14:31:59 51°14.514 2°53.118 89.4 10.8 91 7.3
2009-05-04 14:32:04 51°14.514 2°53.142 89.2 10.9 91 7.3
2009-05-04 14:32:09 51°14.514 2°53.166 89 10.9 90 5.4
2009-05-04 14:32:14 51°14.514 2°53.19 89 10.9 91 5.4
2009-05-04 14:32:19 51°14.514 2°53.214 89 10.7 91 7.2
2009-05-04 14:32:25 51°14.513 2°53.242 89.8 10.9 94 7.1
2009-05-04 14:32:30 51°14.513 2°53.266 90.2 10.9 89 6.9
2009-05-04 14:32:34 51°14.512 2°53.286 89.4 10.9 96 7.1
2009-05-04 14:32:38 51°14.511 2°53.305 90.4 10.8 90 7
2009-05-04 14:32:45 51°14.511 2°53.338 89.1 10.7 93 6.8
2009-05-04 14:32:49 51°14.51 2°53.357 91.3 10.8 92 5.3
2009-05-04 14:32:54 51°14.511 2°53.381 88.8 10.9 91 7.2
2009-05-04 14:32:59 51°14.509 2°53.405 90 11.1 94 7.6
2009-05-04 14:33:04 51°14.51 2°53.43 89.4 11 88 7.6
2009-05-04 14:33:09 51°14.508 2°53.454 90 11.2 94 8.2
2009-05-04 14:33:14 51°14.51 2°53.479 88 11.3 85 8.3
2009-05-04 14:33:20 51°14.509 2°53.509 87 11.4 91 8.5
2009-05-04 14:33:24 51°14.511 2°53.529 86 11.3 84 8.6
2009-05-04 14:33:30 51°14.512 2°53.559 85 11.3 88 8.7
2009-05-04 14:33:34 51°14.513 2°53.579 84.8 11.2 84 8.9
2009-05-04 14:33:40 51°14.514 2°53.608 84.2 11.1 89 9
2009-05-04 14:33:44 51°14.515 2°53.628 84.8 11.1 84 8.8
2009-05-04 14:33:49 51°14.517 2°53.652 83.1 11 85 8.7
2009-05-04 14:33:54 51°14.517 2°53.676 84.1 10.8 86 9.1
2009-05-04 14:34:00 51°14.519 2°53.705 83.3 10.8 85 9.1
2009-05-04 14:34:04 51°14.52 2°53.724 83.6 11 85 9
2009-05-04 14:34:09 51°14.521 2°53.748 83 10.9 85 9.1
2009-05-04 14:34:14 51°14.522 2°53.772 83.8 10.9 87 9.1
2009-05-04 14:34:20 51°14.524 2°53.801 84.3 11 85 9.1
2009-05-04 14:34:24 51°14.525 2°53.82 83.8 11 86 9.1
2009-05-04 14:34:29 51°14.526 2°53.844 83.5 11 85 9.1
2009-05-04 14:34:34 51°14.527 2°53.869 83.7 11 85 9.1
2009-05-04 14:34:39 51°14.529 2°53.893 82.6 11 84 9
2009-05-04 14:34:45 51°14.531 2°53.922 82.4 11 83 9
2009-05-04 14:34:49 51°14.532 2°53.941 81.7 11 83 9.1
2009-05-04 14:34:54 51°14.534 2°53.965 81.5 11 83 9.2
2009-05-04 14:35:00 51°14.536 2°53.994 82 11 84 9.2
2009-05-04 14:35:05 51°14.538 2°54.019 82.7 11 86 9.3
2009-05-04 14:35:09 51°14.539 2°54.038 83.4 11.1 85 9.7
2009-05-04 14:35:14 51°14.539 2°54.063 84.3 11.1 88 9.9
2009-05-04 14:35:19 51°14.539 2°54.087 86.6 11.1 93 9.9
2009-05-04 14:35:24 51°14.538 2°54.112 90.4 11.1 91 9.7
2009-05-04 14:35:30 51°14.538 2°54.14 90.3 10.7 91 9.8
2009-05-04 14:35:34 51°14.538 2°54.159 89.5 10.7 92 9.7
2009-05-04 14:35:39 51°14.537 2°54.183 90.1 10.8 91 9.7
2009-05-04 14:35:45 51°14.537 2°54.212 89.7 10.7 92 9.8
2009-05-04 14:35:49 51°14.536 2°54.231 89.4 10.7 92 9.7
2009-05-04 14:35:54 51°14.534 2°54.254 91.9 10.9 98 9.8
2009-05-04 14:35:59 51°14.533 2°54.278 94.6 10.8 100 9.6
2009-05-04 14:36:04 51°14.529 2°54.301 98.9 10.8 101 9.8
2009-05-04 14:36:10 51°14.527 2°54.33 97.8 10.8 97 9.7
2009-05-04 14:36:14 51°14.525 2°54.349 95.8 11 97 9.7
2009-05-04 14:36:20 51°14.524 2°54.378 94 10.9 93 9.7
2009-05-04 14:36:25 51°14.522 2°54.402 92.3 11 97 9.8
2009-05-04 14:36:29 51°14.521 2°54.421 93.7 10.9 96 9.6
2009-05-04 14:36:34 51°14.519 2°54.445 95.2 11 99 9.6
2009-05-04 14:36:40 51°14.516 2°54.474 96.6 11 99 9.6
2009-05-04 14:36:45 51°14.513 2°54.498 97 11 100 9.5
2009-05-04 14:36:49 51°14.511 2°54.517 97.4 11 101 9.6
2009-05-04 14:36:54 51°14.507 2°54.541 99.2 11 106 9.6
2009-05-04 14:36:59 51°14.503 2°54.564 102.9 10.9 106 9.5
2009-05-04 14:37:05 51°14.497 2°54.592 104.8 11 108 9.4
2009-05-04 14:37:09 51°14.495 2°54.611 103.2 10.9 102 9.4
2009-05-04 14:37:14 51°14.491 2°54.634 101.2 11 105 9.5
2009-05-04 14:37:19 51°14.487 2°54.657 101.7 11 105 9.5
2009-05-04 14:37:25 51°14.481 2°54.685 103.7 11 108 9.6
2009-05-04 14:37:30 51°14.478 2°54.708 103.5 10.9 104 9.5
2009-05-04 14:37:34 51°14.474 2°54.727 102.4 10.9 108 9.7
2009-05-04 14:37:39 51°14.469 2°54.75 103.7 10.9 109 9.5
2009-05-04 14:37:44 51°14.464 2°54.772 105.9 11 112 9.7
2009-05-04 14:37:50 51°14.456 2°54.799 108.2 10.9 114 9.7
2009-05-04 14:37:54 51°14.451 2°54.816 110.3 10.8 115 9.7
2009-05-04 14:38:00 51°14.443 2°54.842 111.6 10.8 117 9.7
2009-05-04 14:38:04 51°14.438 2°54.859 112.1 10.9 115 9.7
2009-05-04 14:38:10 51°14.431 2°54.886 110.7 10.9 113 9.7
2009-05-04 14:38:14 51°14.426 2°54.903 110.1 10.9 113 9.6
2009-05-04 14:38:20 51°14.419 2°54.93 111.2 10.9 115 9.5
2009-05-04 14:38:24 51°14.413 2°54.947 113 11.1 115 9.4
2009-05-04 14:38:29 51°14.407 2°54.97 112.7 11.2 114 9.4
2009-05-04 14:38:34 51°14.401 2°54.993 112.2 11.2 114 9.1
2009-05-04 14:38:40 51°14.392 2°55.019 114.6 11.3 116 9.3
2009-05-04 14:38:44 51°14.388 2°55.038 114 11.2 114 9.3
2009-05-04 14:38:49 51°14.38 2°55.059 116.2 11.3 121 9.4
2009-05-04 14:38:54 51°14.372 2°55.081 119.8 11.5 120 9.7
2009-05-04 14:38:59 51°14.363 2°55.103 121.1 11.4 123 9.7
2009-05-04 14:39:05 51°14.352 2°55.126 124.3 11.1 128 9.7
2009-05-04 14:39:09 51°14.345 2°55.142 127.2 11 126 9.5
2009-05-04 14:39:14 51°14.335 2°55.161 128.3 11 129 9.6
2009-05-04 14:39:19 51°14.325 2°55.179 130.3 10.9 131 9.7
2009-05-04 14:39:25 51°14.313 2°55.2 132.2 10.5 134 9.7
2009-05-04 14:39:30 51°14.304 2°55.216 133.6 10.3 134 9.3
2009-05-04 14:39:34 51°14.295 2°55.228 135.1 10.1 138 9.5
2009-05-04 14:39:40 51°14.283 2°55.246 136.7 9.9 137 9.7
2009-05-04 14:39:45 51°14.273 2°55.26 138.5 9.7 141 9.5
2009-05-04 14:39:49 51°14.265 2°55.271 138.7 9.7 138 9.5
2009-05-04 14:39:54 51°14.254 2°55.285 139.4 9.7 142 9.5
2009-05-04 14:40:00 51°14.242 2°55.301 139.9 9.2 140 9.4
2009-05-04 14:40:04 51°14.234 2°55.31 141.7 9 145 9.3
2009-05-04 14:40:10 51°14.222 2°55.324 143.3 9 142 9.5
2009-05-04 14:40:14 51°14.215 2°55.333 143.2 8.6 144 9.5
2009-05-04 14:40:20 51°14.203 2°55.346 144.8 8.4 146 9.3
2009-05-04 14:40:25 51°14.193 2°55.356 145.3 8.3 146 9.4
2009-05-04 14:40:30 51°14.184 2°55.366 146.3 8 147 9.3
2009-05-04 14:40:34 51°14.177 2°55.373 148 7.8 149 9.3
2009-05-04 14:40:40 51°14.166 2°55.384 149.1 7.7 148 -999
2009-05-04 14:40:45 51°14.157 2°55.393 148.9 7.5 148 -999
2009-05-04 14:40:50 51°14.148 2°55.402 147.7 7.5 147 9.3
2009-05-04 14:40:56 51°14.138 2°55.413 146.8 7.4 147 -999
2009-05-04 14:41:01 51°14.129 2°55.421 147.6 7.4 149 9.2
2009-05-04 14:41:06 51°14.121 2°55.429 149.4 7.3 150 9.2
2009-05-04 14:41:11 51°14.112 2°55.437 150.6 7.3 151 9.2
2009-05-04 14:41:16 51°14.103 2°55.444 151.6 7.2 152 -999
2009-05-04 14:41:21 51°14.094 2°55.452 152.9 7.2 154 9.3
2009-05-04 14:41:26 51°14.085 2°55.458 154 7.1 154 9.3
2009-05-04 14:41:31 51°14.076 2°55.465 154.6 7.1 154 9.3
2009-05-04 14:41:36 51°14.067 2°55.472 154.9 7.1 155 9.4
2009-05-04 14:41:41 51°14.059 2°55.478 155.5 7.1 155 -999